Tiempo atmosférico en la estación meteorológica de Martinet, Lleida (1038 m.)



Fecha
DESCASC
Temp. máxima en grados centígrados (hora)
DESCASC
Temp. mínima en grados centígrados (hora)
DESCASC
Temp. media en grados centígrados
DESCASC
Racha de viento máxima en m/sg (hora)
DESCASC
Velocidad máxima media en intervalos de 10 minutos(hora)
DESCASC
Precipitaciones diarias en mm
DESCASC
Precipitaciones de 00:00 a 06:00 en mm
DESCASC
Precipitaciones de 06:00 a 12:00 en mm
DESCASC
Precipitaciones de 12:00 a 18:00 en mm
DESCASC
Precipitaciones de 18:00 a 24:00 en mm
DESCASC
29-03-2020 15.8 (14:00) -2 (07:40) 6.9 10 (18:40) 5.56 (18:40) 0 0 0 0 0
28-03-2020 13.6 (13:40) 2.1 (06:40) 7.9 6.67 (18:00) 3.06 (15:50) 0 0 0 0 0
27-03-2020 11.4 (14:30) -6.1 (06:00) 2.6 11.11 (17:20) 6.94 (15:50) 0 0 0 0 0
26-03-2020 6.3 (13:10) -3.3 (-00:0) 1.5 9.72 (14:00) 5.83 (14:00) 0.2 0 0.2 0 0
25-03-2020 5.4 (14:20) -0.9 (-00:0) 2.3 8.33 (05:40) 5.28 (04:10) 7 0.6 6.4 0 0
24-03-2020 15.3 (14:10) 0.3 (00:00) 7.8 13.89 (16:40) 10 (16:40) 0 0 0 0 0
23-03-2020 13.1 (14:40) 2.5 (00:00) 7.8 8.89 (16:10) 5.83 (19:00) 0 0 0 0 0
22-03-2020 14.7 (14:00) 3 (06:20) 8.8 9.17 (13:20) 5 (13:20) 0 0 0 0 0
21-03-2020 17 (15:00) -1.9 (-00:0) 7.6 8.61 (18:10) 4.72 (17:00) 0 0 0 0 0
20-03-2020 17.5 (16:00) -0.2 (00:00) 8.6 9.17 (17:30) 4.17 (17:40) 0 0 0 0 0
19-03-2020 18.5 (16:10) 0.2 (00:00) 9.4 7.5 (14:20) 4.17 (12:40) 0 0 0 0 0
18-03-2020 17.2 (14:50) 3 (00:00) 10.1 7.5 (16:50) 3.89 (16:10) 0 0 0 0 0
17-03-2020 13.6 (14:40) 5.8 (00:00) 9.7 7.5 (01:50) 4.17 (01:50) 0 0 0 0 0
16-03-2020 8.8 (00:00) 5.4 (00:00) 7.1 12.22 (10:10) 6.39 (10:10) 21.4 3 2.6 11.2 4.6
15-03-2020 19 (14:50) 5.2 (00:00) 12.1 10 (14:40) 5 (13:40) 0 0 0 0 0
14-03-2020 19.4 (13:40) 6.2 (00:00) 12.8 10.28 (14:40) 5.83 (17:10) 0 0 0 0 0
13-03-2020 17.9 (12:50) 8.2 (23:59) 13 11.11 (13:20) 6.11 (17:10) 1 0.6 0.4 0 0
12-03-2020 25 (15:10) 2.8 (00:00) 13.9 8.33 (16:30) 4.44 (14:40) 0 0 0 0 0
11-03-2020 25.1 (15:40) 1.1 (00:00) 13.1 8.33 (17:10) 4.44 (16:20) 0 0 0 0 0
10-03-2020 21.7 (15:10) 3.1 (00:00) 12.4 8.06 (15:30) 3.89 (12:50) 0 0 0 0 0
09-03-2020 12 (13:50) -0.9 (-00:0) 5.6 14.17 (15:40) 6.11 (14:00) 0 0 0 0 0
08-03-2020 17.7 (16:10) -2.7 (-00:0) 7.5 9.72 (17:10) 5 (17:10) 0 0 0 0 0
07-03-2020 12.1 (15:40) -2.9 (-00:0) 4.6 11.39 (17:30) 6.67 (17:30) 0.2 0 0.2 0 0
06-03-2020 9.7 (12:50) -3.3 (-00:0) 3.2 11.94 (15:40) 5 (16:10) 1 0 0 0 1
05-03-2020 12.9 (11:40) 2.3 (00:00) 7.6 15.56 (17:20) 5.83 (11:10) 4.8 0 0 4.6 0.2
04-03-2020 15.4 (15:20) -2.7 (-00:0) 6.3 7.5 (16:30) 4.44 (16:10) 0 0 0 0 0
03-03-2020 7.8 (14:40) -2 (-00:0) 2.9 11.39 (21:00) 6.39 (15:00) 1.6 0 0 0.6 1
02-03-2020 10.9 (12:10) 1.5 (00:00) 6.2 22.22 (08:40) 12.22 (08:40) 10.8 9 1.8 0 0
01-03-2020 13.5 (16:10) 4.6 (00:00) 9 15.28 (14:20) 7.78 (15:00) 2 0 0.2 0 1.8
29-02-2020 15.4 (12:50) 3.8 (00:00) 9.6 13.89 (09:50) 7.5 (11:20) 0.4 0 0 0 0.4

Gráficas

Temp. máximas Temp. mínimas Temp. medias Precipitaciones Rachas de viento máximas Velocidades máximas media en intervalos de 10 minutos

Datos horarios

Fecha y hora oficial Temperatura (ºC) Velocidad del viento (km/h) Dirección del viento Racha (km/h) Dirección de racha Precipitación (mm) Presión (hPa) Tendencia (hPa) Humedad (%)
2020-03-29 23:00:00 7.9 7 Este 17 Este 0 -- -- 58
2020-03-29 22:00:00 8.5 6 Este 17 Este 0 -- -- 54
2020-03-29 21:00:00 9.1 5 Nordeste 27 Este 0 -- -- 51
2020-03-29 20:00:00 10.2 9 Nordeste 32 Este 0 -- -- 47
2020-03-29 19:00:00 11.5 17 Este 36 Este 0 -- -- 42
2020-03-29 18:00:00 12.6 10 Nordeste 30 Este 0 -- -- 40
2020-03-29 17:00:00 14 16 Este 32 Este 0 -- -- 35
2020-03-29 16:00:00 14.6 12 Este 30 Este 0 -- -- 34
2020-03-29 15:00:00 14.4 16 Este 35 Este 0 -- -- 35
2020-03-29 14:00:00 15.8 13 Este 31 Este 0 -- -- 30
2020-03-29 13:00:00 14.8 11 Este 25 Este 0 -- -- 34
2020-03-29 12:00:00 12.7 11 Este 21 Este 0 -- -- 40
2020-03-29 11:00:00 7.2 7 Este 15 Este 0 -- -- 63
2020-03-29 10:00:00 2.9 4 Sudeste 14 Este 0 -- -- 88
2020-03-29 09:00:00 0 3 Este 5 Nordeste 0 -- -- 94
2020-03-29 08:00:00 -2 0 Calma 4 Este 0 -- -- 96
2020-03-29 07:00:00 -1.7 0 Calma 5 Nordeste 0 -- -- 94
2020-03-29 06:00:00 -1 2 Norte 5 Norte 0 -- -- 94
2020-03-29 05:00:00 -0.7 0 Calma 6 Nordeste 0 -- -- 92
2020-03-29 03:00:00 0.8 2 Norte 4 Norte 0 -- -- 89
2020-03-29 01:00:00 1.4 4 Nordeste 5 Este 0 -- -- 87
2020-03-29 00:00:00 2.2 3 Nordeste 8 Norte 0 -- -- 84
2020-03-28 23:00:00 3.2 3 Nordeste 7 Nordeste 0 -- -- 78
2020-03-28 22:00:00 4.5 2 Norte 9 Norte 0 -- -- 74
2020-03-28 21:00:00 6.8 0 Calma 10 Noroeste 0 -- -- 63
2020-03-28 20:00:00 9 4 Noroeste 10 Oeste 0 -- -- 63
2020-03-28 19:00:00 10.9 5 Oeste 19 Oeste 0 -- -- 57
2020-03-28 18:00:00 12.8 11 Sudoeste 24 Sudoeste 0 -- -- 51
2020-03-28 17:00:00 12 8 Oeste 17 Oeste 0 -- -- 49
2020-03-28 16:00:00 13.2 9 Oeste 19 Sudoeste 0 -- -- 47
2020-03-28 15:00:00 11.7 8 Oeste 16 Oeste 0 -- -- 51
2020-03-28 14:00:00 12.8 5 Oeste 14 Este 0 -- -- 45
2020-03-28 13:00:00 13 6 Este 14 Este 0 -- -- 44
2020-03-28 12:00:00 11.7 8 Este 17 Este 0 -- -- 44
2020-03-28 11:00:00 10.9 8 Este 16 Este 0 -- -- 46
2020-03-28 10:00:00 7.6 5 Este 9 Este 0 -- -- 63
2020-03-28 09:00:00 4.6 2 Sudeste 7 Este 0 -- -- 79
2020-03-28 08:00:00 2.8 0 Calma 4 Nordeste 0 -- -- 87
2020-03-28 07:00:00 2.2 2 Sudoeste 4 Norte 0 -- -- 87
2020-03-28 06:00:00 2.3 2 Norte 4 Norte 0 -- -- 86
2020-03-28 05:00:00 2.4 2 Nordeste 5 Norte 0 -- -- 85
2020-03-28 04:00:00 2.6 0 Calma 4 Oeste 0 -- -- 83
2020-03-28 03:00:00 2.5 0 Calma 4 Nordeste 0 -- -- 83
2020-03-28 02:00:00 2.6 0 Calma 4 Este 0 -- -- 82
2020-03-28 01:00:00 3.1 0 Calma 5 Oeste 0 -- -- 82
2020-03-28 00:00:00 3.6 3 Sudoeste 7 Nordeste 0 -- -- 78
2020-03-27 23:00:00 3.7 5 Norte 9 Nordeste 0 -- -- 79
2020-03-27 22:00:00 4.1 3 Norte 7 Norte 0 -- -- 77
2020-03-27 21:00:00 4.6 2 Noroeste 9 Sudoeste 0 -- -- 74
2020-03-27 20:00:00 5.2 8 Sudoeste 22 Nordeste 0 -- -- 69
2020-03-27 19:00:00 6.3 10 Este 26 Nordeste 0 -- -- 60
2020-03-27 18:00:00 7 9 Este 40 Este 0 -- -- 58
2020-03-27 17:00:00 8.3 18 Este 32 Este 0 -- -- 50
2020-03-27 16:00:00 9.1 21 Este 36 Nordeste 0 -- -- 48
2020-03-27 15:00:00 11.2 7 Este 17 Nordeste 0 -- -- 42
2020-03-27 14:00:00 10.6 6 Sur 14 Sudeste 0 -- -- 46
2020-03-27 13:00:00 9.1 6 Sudoeste 13 Sudoeste 0 -- -- 45
2020-03-27 12:00:00 6.6 3 Norte 18 Nordeste 0 -- -- 45
2020-03-27 11:00:00 3.7 4 Sudeste 9 Sudeste 0 -- -- 56
2020-03-27 10:00:00 0.1 2 Sudeste 6 Sudeste 0 -- -- 72
2020-03-27 09:00:00 -2 4 Este 18 Nordeste 0 -- -- 81
2020-03-27 08:00:00 -4.1 0 Calma 6 Este 0 -- -- 92
2020-03-27 07:00:00 -5.5 2 Sudeste 5 Este 0 -- -- 95
2020-03-27 06:00:00 -6.1 2 Este 4 Nordeste 0 -- -- 94
2020-03-27 05:00:00 -5.7 0 Calma 6 Norte 0 -- -- 92
2020-03-27 04:00:00 -5 2 Nordeste 5 Este 0 -- -- 91
2020-03-27 03:00:00 -4.8 0 Calma 6 Este 0 -- -- 92
2020-03-27 02:00:00 -4.4 0 Calma 4 Norte 0 -- -- 90
2020-03-27 01:00:00 -3.7 2 Sudeste 3 Este 0 -- -- 90
2020-03-27 00:00:00 -3.3 0 Calma 4 Este 0 -- -- 89
2020-03-26 23:00:00 -2.9 3 Este 5 Norte 0 -- -- 85
2020-03-26 22:00:00 -2.2 3 Norte 6 Norte 0 -- -- 83
2020-03-26 21:00:00 -1.2 0 Calma 10 Norte 0 -- -- 80
2020-03-26 20:00:00 0.1 5 Norte 10 Norte 0 -- -- 75
2020-03-26 19:00:00 2.4 2 Noroeste 10 Sudoeste 0 -- -- 67
2020-03-26 18:00:00 3.2 8 Sudoeste 22 Sudoeste 0 -- -- 67
2020-03-26 17:00:00 3.5 6 Sudoeste 26 Este 0 -- -- 61
2020-03-26 16:00:00 5.3 10 Este 23 Este 0 -- -- 48
2020-03-26 15:00:00 6.2 8 Sudeste 34 Este 0 -- -- 40
2020-03-26 14:00:00 5.9 21 Este 35 Este 0 -- -- 39
2020-03-26 13:00:00 5.7 8 Sur 22 Sudeste 0 -- -- 50
2020-03-26 12:00:00 3.9 5 Este 31 Nordeste 0 -- -- 73
2020-03-26 11:00:00 2.8 13 Este 27 Este 0 -- -- 82
2020-03-26 10:00:00 2.3 10 Este 17 Este 0 -- -- 86
2020-03-26 09:00:00 0.5 0 Calma 3 Sudeste 0.2 -- -- 97
2020-03-26 08:00:00 -0.3 0 Calma 9 Oeste 0 -- -- 97
2020-03-26 07:00:00 -0.8 0 Calma 5 Sudoeste 0 -- -- 97
2020-03-26 06:00:00 -0.8 0 Calma 5 Norte 0 -- -- 95
2020-03-26 05:00:00 -0.1 3 Nordeste 6 Nordeste 0 -- -- 95
2020-03-26 04:00:00 -0.2 0 Calma 6 Nordeste 0 -- -- 95
2020-03-26 03:00:00 -0.2 2 Norte 4 Sudoeste 0 -- -- 97
2020-03-26 02:00:00 -0.8 0 Calma 9 Norte 0 -- -- 95
2020-03-26 01:00:00 -0.6 3 Norte 7 Norte 0 -- -- 94
2020-03-26 00:00:00 0.8 0 Calma 4 Norte 0 -- -- 90
2020-03-25 23:00:00 1.4 0 Calma 6 Sudoeste 0 -- -- 89
2020-03-25 22:00:00 1.5 2 Noroeste 18 Oeste 0 -- -- 86
2020-03-25 21:00:00 1.7 6 Oeste 15 Oeste 0 -- -- 85
2020-03-25 20:00:00 1.4 5 Oeste 20 Oeste 0 -- -- 86
2020-03-25 19:00:00 2.3 8 Oeste 26 Oeste 0 -- -- 82
2020-03-25 18:00:00 3.4 14 Oeste 29 Oeste 0 -- -- 78
2020-03-25 17:00:00 4.7 13 Oeste 26 Oeste 0 -- -- 71
2020-03-25 16:00:00 4.8 14 Oeste 24 Noroeste 0 -- -- 71
2020-03-25 15:00:00 4.6 13 Oeste 28 Oeste 0 -- -- 75
2020-03-25 14:00:00 4.6 11 Oeste 25 Oeste 0 -- -- 77
2020-03-25 13:00:00 3.8 9 Oeste 22 Oeste 0 -- -- 80
2020-03-25 12:00:00 3.7 8 Oeste 14 Oeste 0 -- -- 76
2020-03-25 11:00:00 1.5 4 Oeste 11 Oeste 0.2 -- -- 90
2020-03-25 10:00:00 0.6 3 Sudoeste 6 Sudoeste 1.6 -- -- 93
2020-03-25 09:00:00 -0.1 3 Oeste 10 Este 0.8 -- -- 93
2020-03-25 08:00:00 -0.6 3 Este 14 Nordeste 2 -- -- 96
2020-03-25 07:00:00 -0.6 7 Este 26 Este 1.8 -- -- 95
2020-03-25 06:00:00 0.7 8 Este 30 Este 0.2 -- -- 90
2020-03-25 05:00:00 1.5 3 Norte 28 Este 0.4 -- -- 88
2020-03-25 04:00:00 2.7 10 Este 20 Este 0 -- -- 78
2020-03-25 03:00:00 2.3 8 Nordeste 18 Nordeste 0 -- -- 85
2020-03-25 02:00:00 1.3 3 Sudoeste 6 Este 0 -- -- 90
2020-03-25 01:00:00 0.2 0 Calma 6 Oeste 0 -- -- 90
2020-03-25 00:00:00 0.3 2 Noroeste 5 Norte 0 -- -- 87
2020-03-24 23:00:00 1.3 2 Sudeste 8 Este 0 -- -- 85
2020-03-24 22:00:00 2.2 3 Noroeste 12 Norte 0 -- -- 80
2020-03-24 21:00:00 3.5 5 Norte 14 Este 0 -- -- 76
2020-03-24 20:00:00 5.5 9 Este 32 Este 0 -- -- 70
2020-03-24 19:00:00 7.1 12 Este 26 Este 0 -- -- 64
2020-03-24 18:00:00 8.3 17 Este 40 Este 0 -- -- 60
2020-03-24 17:00:00 9.5 28 Este 50 Este 0 -- -- 57
2020-03-24 16:00:00 11 27 Este 44 Este 0 -- -- 52
2020-03-24 15:00:00 14.3 21 Este 34 Este 0 -- -- 41
2020-03-24 14:00:00 15 15 Este 27 Este 0 -- -- 38
2020-03-24 13:00:00 13.7 17 Este 29 Este 0 -- -- 42
2020-03-24 12:00:00 12.8 9 Este 18 Este 0 -- -- 44
2020-03-24 11:00:00 10.9 7 Nordeste 21 Nordeste 0 -- -- 54
2020-03-24 10:00:00 8.2 14 Este 19 Este 0 -- -- 70
2020-03-24 09:00:00 4.5 3 Sudeste 6 Este 0 -- -- 90
2020-03-24 08:00:00 2.5 0 Calma 4 Sudoeste 0 -- -- 96
2020-03-24 07:00:00 1.6 3 Norte 4 Nordeste 0 -- -- 96
2020-03-24 06:00:00 1.2 0 Calma 5 Nordeste 0 -- -- 95
2020-03-24 05:00:00 1.5 0 Calma 5 Sur 0 -- -- 95
2020-03-24 04:00:00 1.1 2 Norte 5 Norte 0 -- -- 95
2020-03-24 03:00:00 1.1 0 Calma 2 Nordeste 0 -- -- 93
2020-03-24 02:00:00 1.9 0 Calma 5 Norte 0 -- -- 92
2020-03-24 01:00:00 2.6 3 Norte 8 Norte 0 -- -- 89
2020-03-24 00:00:00 3.8 3 Norte 5 Norte 0 -- -- 88
2020-03-23 23:00:00 5.3 4 Nordeste 9 Norte 0 -- -- 83
2020-03-23 22:00:00 7.1 3 Norte 20 Este 0 -- -- 77
2020-03-23 21:00:00 7.8 7 Nordeste 15 Este 0 -- -- 77
2020-03-23 20:00:00 8.2 4 Nordeste 27 Este 0 -- -- 76
2020-03-23 19:00:00 9.1 21 Este 30 Este 0 -- -- 69
2020-03-23 18:00:00 10.3 13 Este 30 Este 0 -- -- 62
2020-03-23 17:00:00 12.1 13 Este 32 Este 0 -- -- 54
2020-03-23 16:00:00 12.4 16 Este 29 Este 0 -- -- 55
2020-03-23 15:00:00 12.6 10 Este 21 Este 0 -- -- 55
2020-03-23 14:00:00 11.9 9 Este 28 Este 0 -- -- 57
2020-03-23 13:00:00 12.4 9 Este 22 Este 0 -- -- 56
2020-03-23 12:00:00 11.9 14 Nordeste 22 Este 0 -- -- 55
2020-03-23 11:00:00 11.2 9 Este 21 Este 0 -- -- 64
2020-03-23 10:00:00 7.4 8 Este 18 Este 0 -- -- 77
2020-03-23 09:00:00 5 5 Sudeste 15 Nordeste 0 -- -- 82
2020-03-23 08:00:00 4.1 4 Este 12 Nordeste 0 -- -- 87
2020-03-23 07:00:00 3.8 6 Este 16 Este 0 -- -- 88
2020-03-23 06:00:00 3.6 3 Nordeste 6 Norte 0 -- -- 90
2020-03-23 05:00:00 3.4 2 Sudeste 4 Sudeste 0 -- -- 90
2020-03-23 04:00:00 2.9 0 Calma 6 Norte 0 -- -- 90
2020-03-23 03:00:00 2.9 0 Calma 5 Oeste 0 -- -- 85
2020-03-23 02:00:00 4 2 Sudoeste 10 Este 0 -- -- 83
2020-03-23 01:00:00 5.3 2 Este 9 Este 0 -- -- 80
2020-03-23 00:00:00 5.8 3 Noroeste 8 Norte 0 -- -- 79
2020-03-22 23:00:00 6.3 2 Norte 12 Nordeste 0 -- -- 73
2020-03-22 22:00:00 7.5 3 Sudoeste 13 Norte 0 -- -- 73
2020-03-22 21:00:00 8.7 3 Oeste 13 Nordeste 0 -- -- 70
2020-03-22 20:00:00 8.9 3 Norte 6 Norte 0 -- -- 66
2020-03-22 19:00:00 9.9 3 Norte 16 Oeste 0 -- -- 60
2020-03-22 18:00:00 11.7 6 Oeste 15 Oeste 0 -- -- 53
2020-03-22 17:00:00 13 5 Nordeste 22 Este 0 -- -- 40
2020-03-22 16:00:00 14.1 10 Este 24 Este 0 -- -- 41
2020-03-22 15:00:00 13.9 11 Este 25 Este 0 -- -- 40
2020-03-22 14:00:00 14.7 13 Este 33 Este 0 -- -- 41
2020-03-22 13:00:00 12.8 8 Oeste 20 Oeste 0 -- -- 55
2020-03-22 12:00:00 13.2 10 Oeste 18 Oeste 0 -- -- 53
2020-03-22 11:00:00 10.2 6 Oeste 14 Oeste 0 -- -- 65
2020-03-22 10:00:00 8.5 5 Sudoeste 10 Oeste 0 -- -- 77
2020-03-22 09:00:00 5.8 4 Sur 5 Sudeste 0 -- -- 85
2020-03-22 08:00:00 4.1 0 Calma 4 Nordeste 0 -- -- 90
2020-03-22 07:00:00 3.1 3 Nordeste 7 Nordeste 0 -- -- 89
2020-03-22 06:00:00 3.1 0 Calma 8 Norte 0 -- -- 88
2020-03-22 05:00:00 3.6 3 Norte 5 Norte 0 -- -- 87
2020-03-22 04:00:00 4.9 4 Norte 6 Norte 0 -- -- 85
2020-03-22 03:00:00 4.7 0 Calma 4 Oeste 0 -- -- 84
2020-03-22 02:00:00 4.5 2 Oeste 5 Sudoeste 0 -- -- 81
2020-03-22 01:00:00 4.4 5 Oeste 9 Noroeste 0 -- -- 83
2020-03-22 00:00:00 4.9 2 Oeste 13 Norte 0 -- -- 78
2020-03-21 23:00:00 6.2 5 Norte 13 Norte 0 -- -- 73
2020-03-21 22:00:00 8.5 3 Sudoeste 22 Sudoeste 0 -- -- 66
2020-03-21 21:00:00 9.3 9 Sudoeste 21 Sudoeste 0 -- -- 63
2020-03-21 20:00:00 10.2 4 Sudoeste 18 Oeste 0 -- -- 59
2020-03-21 19:00:00 11.4 10 Oeste 31 Oeste 0 -- -- 55
2020-03-21 18:00:00 13.2 15 Oeste 30 Oeste 0 -- -- 50
2020-03-21 17:00:00 14.4 17 Oeste 30 Oeste 0 -- -- 47
2020-03-21 16:00:00 15.8 15 Oeste 27 Oeste 0 -- -- 44
2020-03-21 15:00:00 17 10 Oeste 23 Oeste 0 -- -- 43
2020-03-21 14:00:00 16.3 9 Sudoeste 19 Sur 0 -- -- 40
2020-03-21 13:00:00 14.9 10 Sudoeste 20 Oeste 0 -- -- 43
2020-03-21 12:00:00 12.7 11 Oeste 20 Oeste 0 -- -- 47
2020-03-21 11:00:00 9 5 Noroeste 10 Sudoeste 0 -- -- 63
2020-03-21 10:00:00 4.7 4 Sur 12 Este 0 -- -- 80
2020-03-21 09:00:00 1.6 5 Este 18 Este 0 -- -- 92
2020-03-21 08:00:00 -0.7 8 Este 13 Este 0 -- -- 98
2020-03-21 07:00:00 -1.8 3 Sur 5 Sur 0 -- -- 97
2020-03-21 06:00:00 -1.5 0 Calma 4 Nordeste 0 -- -- 94
2020-03-21 05:00:00 -1.1 0 Calma 4 Norte 0 -- -- 92
2020-03-21 04:00:00 -0.5 0 Calma 5 Norte 0 -- -- 92
2020-03-21 03:00:00 0.3 0 Calma 5 Nordeste 0 -- -- 91
2020-03-21 02:00:00 1 2 Norte 5 Norte 0 -- -- 89
2020-03-21 01:00:00 2 4 Norte 8 Norte 0 -- -- 86
2020-03-21 00:00:00 3.2 5 Norte 9 Norte 0 -- -- 83
2020-03-20 23:00:00 4.7 0 Calma 4 Norte 0 -- -- 79
2020-03-20 22:00:00 6.2 0 Calma 7 Noroeste 0 -- -- 75
2020-03-20 21:00:00 7.7 5 Noroeste 13 Oeste 0 -- -- 68
2020-03-20 20:00:00 9.5 6 Oeste 24 Sudoeste 0 -- -- 61
2020-03-20 19:00:00 11.4 8 Sudoeste 28 Oeste 0 -- -- 55
2020-03-20 18:00:00 14.5 11 Oeste 33 Oeste 0 -- -- 48
2020-03-20 17:00:00 16 13 Oeste 25 Oeste 0 -- -- 44
2020-03-20 16:00:00 17.5 5 Este 14 Sur 0 -- -- 34
2020-03-20 15:00:00 16.8 8 Oeste 19 Oeste 0 -- -- 32
2020-03-20 14:00:00 16.4 7 Nordeste 19 Nordeste 0 -- -- 26
2020-03-20 13:00:00 15.8 7 Sur 15 Sudoeste 0 -- -- 31
2020-03-20 12:00:00 13.4 5 Sudoeste 12 Sudoeste 0 -- -- 45
2020-03-20 11:00:00 10.5 4 Sur 8 Sur 0 -- -- 57
2020-03-20 10:00:00 6.9 4 Sudeste 8 Sudeste 0 -- -- 74
2020-03-20 09:00:00 3 3 Este 5 Este 0 -- -- 89
2020-03-20 08:00:00 0.7 4 Nordeste 5 Nordeste 0 -- -- 96
2020-03-20 07:00:00 0.1 0 Calma 6 Norte 0 -- -- 94
2020-03-20 06:00:00 1.1 2 Este 5 Este 0 -- -- 94
2020-03-20 05:00:00 2.3 0 Calma 5 Sudeste 0 -- -- 92
2020-03-20 04:00:00 3.6 3 Sudeste 6 Sudeste 0 -- -- 90
2020-03-20 03:00:00 3.8 0 Calma 3 Sudoeste 0 -- -- 90
2020-03-20 02:00:00 3.8 3 Sudeste 4 Sudeste 0 -- -- 89
2020-03-20 01:00:00 3.6 0 Calma 4 Nordeste 0 -- -- 89
2020-03-20 00:00:00 4.1 0 Calma 4 Este 0 -- -- 85
2020-03-19 23:00:00 5.1 3 Oeste 6 Oeste 0 -- -- 82
2020-03-19 22:00:00 6.5 2 Noroeste 10 Norte 0 -- -- 73
2020-03-19 21:00:00 8.3 5 Norte 10 Oeste 0 -- -- 68
2020-03-19 20:00:00 10.5 7 Oeste 15 Sudoeste 0 -- -- 60
2020-03-19 19:00:00 13.2 5 Oeste 20 Sudoeste 0 -- -- 52
2020-03-19 18:00:00 15.7 10 Sudoeste 24 Sudoeste 0 -- -- 42
2020-03-19 17:00:00 16.4 6 Sudeste 20 Sudeste 0 -- -- 37
2020-03-19 16:00:00 18.3 7 Sudeste 25 Este 0 -- -- 30
2020-03-19 15:00:00 18.3 9 Este 27 Este 0 -- -- 31
2020-03-19 14:00:00 17.4 10 Nordeste 21 Este 0 -- -- 28
2020-03-19 13:00:00 16.9 12 Este 26 Este 0 -- -- 30
2020-03-19 12:00:00 15.3 6 Sudeste 13 Nordeste 0 -- -- 36
2020-03-19 11:00:00 11.3 4 Sudeste 11 Sudeste 0 -- -- 58
2020-03-19 10:00:00 7.1 4 Sudeste 8 Sudeste 0 -- -- 77
2020-03-19 09:00:00 3 3 Sur 6 Sudeste 0 -- -- 97
2020-03-19 08:00:00 1.5 3 Nordeste 5 Nordeste 0 -- -- 98
2020-03-19 07:00:00 0.2 0 Calma 4 Este 0 -- -- 96
2020-03-19 06:00:00 1 0 Calma 4 Sur 0 -- -- 97
2020-03-19 05:00:00 1.8 0 Calma 5 Sudeste 0 -- -- 96
2020-03-19 04:00:00 2.6 0 Calma 4 Este 0 -- -- 96
2020-03-19 03:00:00 3.1 0 Calma 6 Nordeste 0 -- -- 93
2020-03-19 02:00:00 3.8 2 Norte 4 Norte 0 -- -- 93
2020-03-19 01:00:00 4.4 2 Este 5 Norte 0 -- -- 92
2020-03-19 00:00:00 5.2 0 Calma 4 Norte 0 -- -- 91
2020-03-18 23:00:00 6.1 2 Nordeste 4 Este 0 -- -- 89
2020-03-18 22:00:00 7.1 2 Nordeste 5 Norte 0 -- -- 85
2020-03-18 21:00:00 8.5 2 Norte 8 Norte 0 -- -- 82
2020-03-18 20:00:00 9.6 5 Noroeste 9 Oeste 0 -- -- 83
2020-03-18 19:00:00 11.7 3 Noroeste 17 Oeste 0 -- -- 75
2020-03-18 18:00:00 13.4 8 Oeste 22 Oeste 0 -- -- 68
2020-03-18 17:00:00 14.7 14 Oeste 27 Oeste 0 -- -- 63
2020-03-18 16:00:00 16.3 12 Oeste 24 Oeste 0 -- -- 58
2020-03-18 15:00:00 17.1 13 Oeste 22 Oeste 0 -- -- 50
2020-03-18 14:00:00 16.3 10 Oeste 18 Oeste 0 -- -- 53
2020-03-18 13:00:00 14.6 8 Oeste 21 Oeste 0 -- -- 62
2020-03-18 12:00:00 12.8 7 Oeste 15 Oeste 0 -- -- 73
2020-03-18 11:00:00 8.9 2 Sudeste 5 Sudeste 0 -- -- 88
2020-03-18 10:00:00 5.9 2 Sudeste 7 Sur 0 -- -- 100
2020-03-18 09:00:00 4.3 3 Sur 10 Este 0 -- -- 100
2020-03-18 08:00:00 3.4 8 Este 13 Este 0 -- -- 100
2020-03-18 07:00:00 3.2 3 Este 5 Sudeste 0 -- -- 99
2020-03-18 06:00:00 3.1 0 Calma 4 Sudeste 0 -- -- 99
2020-03-18 05:00:00 3.3 0 Calma 4 Nordeste 0 -- -- 98
2020-03-18 04:00:00 3.9 3 Nordeste 4 Nordeste 0 -- -- 97
2020-03-18 03:00:00 4.4 0 Calma 4 Sudeste 0 -- -- 96
2020-03-18 02:00:00 4.9 3 Norte 4 Nordeste 0 -- -- 96
2020-03-18 01:00:00 5.3 0 Calma 6 Norte 0 -- -- 95
2020-03-18 00:00:00 5.8 2 Noroeste 4 Nordeste 0 -- -- 94
2020-03-17 23:00:00 6.3 0 Calma 4 Nordeste 0 -- -- 93
2020-03-17 22:00:00 7 4 Norte 6 Norte 0 -- -- 90
2020-03-17 21:00:00 7.7 2 Sudoeste 8 Nordeste 0 -- -- 89
2020-03-17 20:00:00 8.7 3 Norte 6 Noroeste 0 -- -- 86
2020-03-17 19:00:00 9.9 3 Noroeste 7 Oeste 0 -- -- 80
2020-03-17 18:00:00 11.1 3 Noroeste 13 Oeste 0 -- -- 75
2020-03-17 17:00:00 12.1 5 Oeste 13 Oeste 0 -- -- 72
2020-03-17 16:00:00 12.3 4 Oeste 17 Oeste 0 -- -- 73
2020-03-17 15:00:00 13.5 3 Nordeste 13 Norte 0 -- -- 58
2020-03-17 14:00:00 12.8 9 Nordeste 21 Nordeste 0 -- -- 61
2020-03-17 13:00:00 11.4 4 Sudeste 12 Este 0 -- -- 72
2020-03-17 12:00:00 10 6 Este 14 Este 0 -- -- 77
2020-03-17 11:00:00 8.9 5 Este 15 Este 0 -- -- 81
2020-03-17 10:00:00 8 4 Este 20 Este 0 -- -- 86
2020-03-17 09:00:00 7 5 Este 17 Este 0 -- -- 88
2020-03-17 08:00:00 6.6 3 Sudeste 18 Este 0 -- -- 90
2020-03-17 07:00:00 6.8 7 Este 25 Nordeste 0 -- -- 86
2020-03-17 06:00:00 6.9 10 Nordeste 19 Nordeste 0 -- -- 86
2020-03-17 05:00:00 7.1 10 Nordeste 21 Este 0 -- -- 85
2020-03-17 04:00:00 6.6 5 Nordeste 15 Norte 0 -- -- 90
2020-03-17 03:00:00 7.2 10 Nordeste 26 Este 0 -- -- 87
2020-03-17 02:00:00 6.9 13 Nordeste 27 Nordeste 0 -- -- 88
2020-03-17 01:00:00 6.6 12 Nordeste 25 Este 0 -- -- 89
2020-03-17 00:00:00 6 8 Nordeste 22 Norte 0 -- -- 92
2020-03-16 23:00:00 5.7 3 Norte 17 Nordeste 0.2 -- -- 94
2020-03-16 22:00:00 5.5 9 Nordeste 18 Nordeste 1.2 -- -- 95
2020-03-16 21:00:00 5.4 5 Nordeste 17 Este 0.4 -- -- 95
2020-03-16 20:00:00 5.4 2 Este 12 Este 1 -- -- 96
2020-03-16 19:00:00 5.8 3 Este 7 Nordeste 1.8 -- -- 96
2020-03-16 18:00:00 6.1 2 Sudeste 5 Norte 1.8 -- -- 96
2020-03-16 17:00:00 6.2 4 Nordeste 12 Nordeste 2 -- -- 94
2020-03-16 16:00:00 6.3 3 Este 12 Nordeste 1 -- -- 94
2020-03-16 15:00:00 6.1 5 Nordeste 18 Nordeste 3 -- -- 95
2020-03-16 14:00:00 5.9 6 Norte 20 Este 2 -- -- 93
2020-03-16 13:00:00 5.7 9 Nordeste 21 Este 1.4 -- -- 90
2020-03-16 12:00:00 5.8 8 Este 31 Nordeste 0.6 -- -- 86
2020-03-16 11:00:00 5.9 11 Nordeste 44 Este 0.6 -- -- 79
2020-03-16 10:00:00 6.9 13 Este 27 Este 0.6 -- -- 87
2020-03-16 09:00:00 7.2 15 Nordeste 31 Este 0.4 -- -- 83
2020-03-16 08:00:00 7 11 Nordeste 38 Este 0.4 -- -- 91
2020-03-16 07:00:00 7.1 8 Este 20 Nordeste 0 -- -- 86
2020-03-16 06:00:00 6.8 8 Nordeste 22 Este 0.6 -- -- 89
2020-03-16 05:00:00 6.9 7 Este 21 Este 0.4 -- -- 88
2020-03-16 04:00:00 6.8 3 Este 8 Nordeste 0.8 -- -- 95
2020-03-16 03:00:00 7 2 Este 17 Oeste 1 -- -- 94
2020-03-16 02:00:00 7.6 8 Oeste 35 Nordeste 0.2 -- -- 87
2020-03-16 01:00:00 8.1 6 Sur 29 Nordeste 0 -- -- 79
2020-03-16 00:00:00 8.8 11 Nordeste 29 Este 0 -- -- 78
2020-03-15 23:00:00 9.1 4 Noroeste 19 Nordeste 0 -- -- 77
2020-03-15 22:00:00 9.6 6 Norte 17 Nordeste 0 -- -- 77
2020-03-15 21:00:00 9.9 4 Nordeste 20 Nordeste 0 -- -- 77
2020-03-15 20:00:00 10.7 5 Norte 21 Este 0 -- -- 73
2020-03-15 19:00:00 12.5 10 Noroeste 22 Noroeste 0 -- -- 68
2020-03-15 18:00:00 14.8 9 Sudoeste 25 Oeste 0 -- -- 54
2020-03-15 17:00:00 16.5 15 Oeste 30 Oeste 0 -- -- 45
2020-03-15 16:00:00 17.9 12 Oeste 32 Oeste 0 -- -- 31
2020-03-15 15:00:00 18.8 15 Oeste 36 Oeste 0 -- -- 32
2020-03-15 14:00:00 18.2 18 Oeste 34 Oeste 0 -- -- 34
2020-03-15 13:00:00 17.6 16 Oeste 32 Oeste 0 -- -- 35
2020-03-15 12:00:00 16.1 17 Oeste 29 Oeste 0 -- -- 40
2020-03-15 11:00:00 13.2 7 Oeste 14 Oeste 0 -- -- 60
2020-03-15 10:00:00 9.2 8 Oeste 13 Oeste 0 -- -- 75
2020-03-15 09:00:00 6.9 3 Sudoeste 5 Noroeste 0 -- -- 78
2020-03-15 08:00:00 5.3 0 Calma 4 Nordeste 0 -- -- 80
2020-03-15 07:00:00 6 0 Calma 4 Sudoeste 0 -- -- 81
2020-03-15 06:00:00 6.6 0 Calma 3 Sudeste 0 -- -- 83
2020-03-15 05:00:00 6.9 0 Calma 4 Sudeste 0 -- -- 82
2020-03-15 04:00:00 7 2 Norte 3 Nordeste 0 -- -- 83
2020-03-15 03:00:00 7 0 Calma 6 Norte 0 -- -- 82
2020-03-15 02:00:00 6.8 2 Este 3 Este 0 -- -- 83
2020-03-15 01:00:00 6.5 0 Calma 8 Norte 0 -- -- 83
2020-03-15 00:00:00 6.2 3 Norte 6 Norte 0 -- -- 84
2020-03-14 23:00:00 6.5 2 Oeste 9 Norte 0 -- -- 85
2020-03-14 22:00:00 7.4 0 Calma 11 Norte 0 -- -- 83
2020-03-14 21:00:00 8.9 3 Noroeste 10 Oeste 0 -- -- 79
2020-03-14 20:00:00 10.8 4 Noroeste 9 Oeste 0 -- -- 70
2020-03-14 19:00:00 13.1 3 Noroeste 26 Oeste 0 -- -- 61
2020-03-14 18:00:00 15.7 11 Oeste 34 Oeste 0 -- -- 48
2020-03-14 17:00:00 17.5 17 Oeste 34 Oeste 0 -- -- 36
2020-03-14 16:00:00 19 16 Oeste 34 Oeste 0 -- -- 37
2020-03-14 15:00:00 19.1 19 Oeste 37 Oeste 0 -- -- 40
2020-03-14 14:00:00 19.1 19 Oeste 33 Oeste 0 -- -- 30
2020-03-14 13:00:00 18.6 14 Oeste 23 Oeste 0 -- -- 40
2020-03-14 12:00:00 17 9 Oeste 15 Oeste 0 -- -- 50
2020-03-14 11:00:00 14.1 4 Sur 10 Sudoeste 0 -- -- 57
2020-03-14 10:00:00 10.3 3 Sudeste 7 Sudeste 0 -- -- 74
2020-03-14 09:00:00 7 3 Sudoeste 5 Sur 0 -- -- 92
2020-03-14 08:00:00 6.3 0 Calma 8 Este 0 -- -- 91
2020-03-14 07:00:00 7.3 0 Calma 4 Este 0 -- -- 91
2020-03-14 06:00:00 8.5 0 Calma 5 Noroeste 0 -- -- 88
2020-03-14 05:00:00 8.6 0 Calma 3 Este 0 -- -- 87
2020-03-14 04:00:00 8.7 0 Calma 6 Noroeste 0 -- -- 86
2020-03-14 03:00:00 8.6 0 Calma 5 Norte 0 -- -- 85
2020-03-14 02:00:00 8.6 0 Calma 5 Sudoeste 0 -- -- 86
2020-03-14 01:00:00 8.3 4 Nordeste 10 Norte 0 -- -- 84
2020-03-14 00:00:00 8.2 2 Sudoeste 12 Norte 0 -- -- 86
2020-03-13 23:00:00 9.2 6 Norte 10 Norte 0 -- -- 84
2020-03-13 22:00:00 10.4 7 Noroeste 18 Sudoeste 0 -- -- 79
2020-03-13 21:00:00 11.4 6 Oeste 21 Oeste 0 -- -- 76
2020-03-13 20:00:00 12.2 10 Oeste 30 Oeste 0 -- -- 73
2020-03-13 19:00:00 13.2 11 Oeste 25 Oeste 0 -- -- 70
2020-03-13 18:00:00 14.6 16 Oeste 34 Oeste 0 -- -- 65
2020-03-13 17:00:00 15.9 20 Oeste 34 Oeste 0 -- -- 62
2020-03-13 16:00:00 15.9 19 Oeste 30 Oeste 0 -- -- 61
2020-03-13 15:00:00 16.3 18 Oeste 33 Oeste 0 -- -- 61
2020-03-13 14:00:00 16.9 14 Oeste 40 Oeste 0 -- -- 62
2020-03-13 13:00:00 17.1 18 Oeste 31 Oeste 0 -- -- 64
2020-03-13 12:00:00 16.4 8 Sudoeste 17 Sudoeste 0 -- -- 69
2020-03-13 11:00:00 14.2 7 Oeste 11 Oeste 0 -- -- 78
2020-03-13 10:00:00 11 3 Sudeste 17 Este 0 -- -- 91
2020-03-13 09:00:00 9.8 3 Este 9 Oeste 0 -- -- 95
2020-03-13 08:00:00 8.8 3 Noroeste 8 Noroeste 0 -- -- 95
2020-03-13 07:00:00 9.1 3 Nordeste 8 Oeste 0.4 -- -- 93
2020-03-13 06:00:00 9.4 3 Norte 9 Norte 0 -- -- 91
2020-03-13 05:00:00 10 2 Sudoeste 12 Oeste 0.4 -- -- 91
2020-03-13 04:00:00 10.8 4 Oeste 12 Norte 0 -- -- 87
2020-03-13 03:00:00 12.2 9 Noroeste 19 Oeste 0.2 -- -- 77
2020-03-13 02:00:00 13 0 Calma 10 Norte 0 -- -- 65
2020-03-13 01:00:00 13.6 6 Noroeste 14 Sudoeste 0 -- -- 63
2020-03-13 00:00:00 12.7 3 Noroeste 8 Oeste 0 -- -- 62
2020-03-12 23:00:00 12.4 0 Calma 9 Oeste 0 -- -- 59
2020-03-12 22:00:00 12.8 0 Calma 8 Noroeste 0 -- -- 56
2020-03-12 21:00:00 13.9 2 Noroeste 5 Oeste 0 -- -- 51
2020-03-12 20:00:00 16.1 3 Noroeste 9 Oeste 0 -- -- 46
2020-03-12 19:00:00 18.7 4 Noroeste 15 Oeste 0 -- -- 40
2020-03-12 18:00:00 21.2 9 Oeste 24 Oeste 0 -- -- 32
2020-03-12 17:00:00 23.2 10 Oeste 30 Sudoeste 0 -- -- 28
2020-03-12 16:00:00 24.4 11 Sudoeste 29 Sur 0 -- -- 29
2020-03-12 15:00:00 24.9 15 Oeste 29 Oeste 0 -- -- 29
2020-03-12 14:00:00 24.7 11 Oeste 27 Oeste 0 -- -- 29
2020-03-12 13:00:00 22.6 7 Sudoeste 14 Oeste 0 -- -- 35
2020-03-12 12:00:00 -- 4 Sudeste 9 Sudeste 0 -- -- --
2020-03-12 11:00:00 15.5 5 Sudeste 13 Este 0 -- -- 50
2020-03-12 10:00:00 10.3 5 Sudeste 16 Este 0 -- -- 66
2020-03-12 09:00:00 5.6 2 Sudeste 7 Sudeste 0 -- -- 84
2020-03-12 08:00:00 2.8 2 Sudeste 5 Sudeste 0 -- -- 90
2020-03-12 07:00:00 3.2 2 Norte 4 Norte 0 -- -- 88
2020-03-12 06:00:00 3.8 2 Este 6 Este 0 -- -- 88
2020-03-12 05:00:00 3.6 4 Este 6 Este 0 -- -- 87
2020-03-12 04:00:00 5 0 Calma 5 Nordeste 0 -- -- 81
2020-03-12 03:00:00 5.3 2 Sudeste 6 Este 0 -- -- 81
2020-03-12 02:00:00 6.7 0 Calma 5 Norte 0 -- -- 74
2020-03-12 01:00:00 7.3 2 Este 5 Norte 0 -- -- 72
2020-03-12 00:00:00 8.1 0 Calma 4 Sudeste 0 -- -- 68
2020-03-11 23:00:00 9.1 2 Norte 6 Nordeste 0 -- -- 62
2020-03-11 22:00:00 10.6 0 Calma 4 Norte 0 -- -- 58
2020-03-11 21:00:00 12 2 Norte 10 Oeste 0 -- -- 52
2020-03-11 20:00:00 13.8 6 Oeste 9 Oeste 0 -- -- 50
2020-03-11 19:00:00 18.1 2 Sudoeste 28 Oeste 0 -- -- 38
2020-03-11 18:00:00 21.3 14 Oeste 30 Oeste 0 -- -- 31
2020-03-11 17:00:00 23 16 Oeste 30 Oeste 0 -- -- 28
2020-03-11 16:00:00 24.9 10 Oeste 27 Oeste 0 -- -- 23
2020-03-11 15:00:00 24.8 14 Oeste 25 Oeste 0 -- -- 22
2020-03-11 14:00:00 23.9 12 Oeste 26 Oeste 0 -- -- 24
2020-03-11 13:00:00 22 8 Sudoeste 21 Sudoeste 0 -- -- 24
2020-03-11 12:00:00 17.9 5 Sur 11 Este 0 -- -- 28
2020-03-11 11:00:00 14.1 6 Este 20 Este 0 -- -- 41
2020-03-11 10:00:00 8.8 9 Este 19 Nordeste 0 -- -- 58
2020-03-11 09:00:00 3.6 3 Este 6 Sudeste 0 -- -- 85
2020-03-11 08:00:00 1.1 0 Calma 6 Norte 0 -- -- 91
2020-03-11 07:00:00 1.2 3 Nordeste 8 Sudeste 0 -- -- 91
2020-03-11 06:00:00 1.9 3 Este 5 Nordeste 0 -- -- 87
2020-03-11 05:00:00 2.8 3 Nordeste 6 Sudeste 0 -- -- 82
2020-03-11 04:00:00 3.4 4 Sudeste 10 Este 0 -- -- 85
2020-03-11 03:00:00 4.2 3 Nordeste 6 Nordeste 0 -- -- 78
2020-03-11 02:00:00 5.5 2 Este 8 Nordeste 0 -- -- 76
2020-03-11 01:00:00 7 3 Norte 9 Norte 0 -- -- 71
2020-03-11 00:00:00 7.9 3 Nordeste 10 Norte 0 -- -- 69
2020-03-10 23:00:00 9.3 4 Norte 7 Norte 0 -- -- 64
2020-03-10 22:00:00 10.5 3 Norte 12 Noroeste 0 -- -- 60
2020-03-10 21:00:00 12.2 4 Noroeste 12 Norte 0 -- -- 55
2020-03-10 20:00:00 14.3 9 Oeste 21 Oeste 0 -- -- 50
2020-03-10 19:00:00 15.6 6 Oeste 19 Oeste 0 -- -- 48
2020-03-10 18:00:00 17.7 10 Oeste 24 Oeste 0 -- -- 43
2020-03-10 17:00:00 19.5 12 Oeste 23 Oeste 0 -- -- 38
2020-03-10 16:00:00 20.1 11 Oeste 29 Sudoeste 0 -- -- 37
2020-03-10 15:00:00 21.4 7 Oeste 18 Oeste 0 -- -- 34
2020-03-10 14:00:00 20.4 7 Oeste 25 Oeste 0 -- -- 38
2020-03-10 13:00:00 17.2 13 Oeste 26 Oeste 0 -- -- 43
2020-03-10 12:00:00 15 10 Oeste 22 Oeste 0 -- -- 48
2020-03-10 11:00:00 9.8 6 Noroeste 17 Oeste 0 -- -- 55
2020-03-10 10:00:00 6.6 8 Noroeste 16 Noroeste 0 -- -- 63
2020-03-10 09:00:00 5.3 7 Oeste 18 Oeste 0 -- -- 66
2020-03-10 08:00:00 4.7 5 Oeste 15 Oeste 0 -- -- 70
2020-03-10 07:00:00 4.5 5 Noroeste 10 Norte 0 -- -- 71
2020-03-10 06:00:00 4.2 3 Oeste 9 Norte 0 -- -- 69
2020-03-10 05:00:00 3.7 3 Noroeste 9 Norte 0 -- -- 70
2020-03-10 04:00:00 3.4 4 Noroeste 10 Norte 0 -- -- 69
2020-03-10 03:00:00 3.2 3 Oeste 10 Norte 0 -- -- 68
2020-03-10 02:00:00 3.1 5 Nordeste 13 Sudoeste 0 -- -- 68
2020-03-10 01:00:00 4.1 4 Noroeste 15 Norte 0 -- -- 61
2020-03-10 00:00:00 5.4 2 Oeste 6 Nordeste 0 -- -- 58
2020-03-09 23:00:00 6 6 Norte 14 Este 0 -- -- 54
2020-03-09 22:00:00 6.9 3 Oeste 24 Este 0 -- -- 49
2020-03-09 21:00:00 7.9 5 Nordeste 40 Nordeste 0 -- -- 45
2020-03-09 20:00:00 8.1 9 Nordeste 26 Este 0 -- -- 43
2020-03-09 19:00:00 8.1 9 Nordeste 26 Este 0 -- -- 42
2020-03-09 18:00:00 9.3 5 Este 26 Oeste 0 -- -- 37
2020-03-09 17:00:00 9.5 10 Sudoeste 32 Oeste 0 -- -- 36
2020-03-09 16:00:00 10 16 Oeste 51 Oeste 0 -- -- 35
2020-03-09 15:00:00 10.7 14 Oeste 41 Oeste 0 -- -- 34
2020-03-09 14:00:00 11.6 22 Oeste 45 Oeste 0 -- -- 30
2020-03-09 13:00:00 11.4 10 Sudoeste 36 Oeste 0 -- -- 32
2020-03-09 12:00:00 9.3 18 Oeste 42 Norte 0 -- -- 32
2020-03-09 11:00:00 10.6 14 Noroeste 44 Oeste 0 -- -- 33
2020-03-09 10:00:00 7.2 5 Sur 12 Este 0 -- -- 49
2020-03-09 09:00:00 2.8 4 Sudoeste 14 Norte 0 -- -- 83
2020-03-09 08:00:00 -0.3 2 Nordeste 10 Norte 0 -- -- 95
2020-03-09 07:00:00 -0.9 3 Norte 11 Norte 0 -- -- 94
2020-03-09 06:00:00 -0.4 3 Sudoeste 9 Este 0 -- -- 93
2020-03-09 05:00:00 0 3 Este 10 Norte 0 -- -- 90
2020-03-09 04:00:00 0 5 Norte 9 Norte 0 -- -- 90
2020-03-09 03:00:00 0.7 3 Sudeste 7 Norte 0 -- -- 88
2020-03-09 02:00:00 1.5 2 Nordeste 5 Nordeste 0 -- -- 86
2020-03-09 01:00:00 2.1 2 Nordeste 7 Norte 0 -- -- 80
2020-03-09 00:00:00 3 2 Norte 5 Norte 0 -- -- 76
2020-03-08 23:00:00 4.3 4 Norte 9 Norte 0 -- -- 72
2020-03-08 22:00:00 6.1 5 Norte 11 Noroeste 0 -- -- 65
2020-03-08 21:00:00 8.1 7 Noroeste 19 Noroeste 0 -- -- 69
2020-03-08 20:00:00 10 5 Noroeste 23 Oeste 0 -- -- 62
2020-03-08 19:00:00 11.7 13 Oeste 32 Oeste 0 -- -- 54
2020-03-08 18:00:00 13.3 14 Oeste 35 Oeste 0 -- -- 47
2020-03-08 17:00:00 15.8 17 Oeste 29 Oeste 0 -- -- 29
2020-03-08 16:00:00 17.3 9 Oeste 27 Oeste 0 -- -- 26
2020-03-08 15:00:00 16.5 9 Oeste 19 Sudoeste 0 -- -- 28
2020-03-08 14:00:00 16.9 8 Oeste 19 Oeste 0 -- -- 32
2020-03-08 13:00:00 15.1 5 Sur 11 Sur 0 -- -- 35
2020-03-08 12:00:00 12 4 Este 10 Este 0 -- -- 43
2020-03-08 11:00:00 8.2 5 Este 13 Este 0 -- -- 56
2020-03-08 10:00:00 4 5 Este 15 Este 0 -- -- 74
2020-03-08 09:00:00 -0.3 3 Este 7 Norte 0 -- -- 91
2020-03-08 08:00:00 -2.7 4 Este 5 Este 0 -- -- 94
2020-03-08 07:00:00 -2.4 0 Calma 4 Sudeste 0 -- -- 92
2020-03-08 06:00:00 -1.6 0 Calma 4 Norte 0 -- -- 90
2020-03-08 05:00:00 -0.6 0 Calma 5 Norte 0 -- -- 88
2020-03-08 04:00:00 0.3 0 Calma 4 Nordeste 0 -- -- 85
2020-03-08 03:00:00 0.5 0 Calma 6 Sudeste 0 -- -- 84
2020-03-08 02:00:00 1.3 3 Nordeste 6 Norte 0 -- -- 80
2020-03-08 01:00:00 1.6 2 Noroeste 7 Norte 0 -- -- 77
2020-03-08 00:00:00 1.9 2 Noroeste 8 Oeste 0 -- -- 74
2020-03-07 23:00:00 2.3 3 Oeste 8 Oeste 0 -- -- 72
2020-03-07 22:00:00 2.9 5 Norte 11 Norte 0 -- -- 69
2020-03-07 21:00:00 4.8 5 Oeste 24 Este 0 -- -- 59
2020-03-07 20:00:00 6.8 16 Este 37 Este 0 -- -- 52
2020-03-07 19:00:00 7.3 18 Nordeste 36 Este 0 -- -- 49
2020-03-07 18:00:00 9.5 8 Sudeste 41 Nordeste 0 -- -- 38
2020-03-07 17:00:00 10.9 18 Este 36 Este 0 -- -- 33
2020-03-07 16:00:00 11.4 15 Este 33 Este 0 -- -- 23
2020-03-07 15:00:00 11 10 Nordeste 36 Nordeste 0 -- -- 26
2020-03-07 14:00:00 9.8 18 Nordeste 38 Nordeste 0 -- -- 29
2020-03-07 13:00:00 9.9 10 Nordeste 26 Nordeste 0 -- -- 32
2020-03-07 12:00:00 9.6 11 Nordeste 37 Nordeste 0 -- -- 36
2020-03-07 11:00:00 7.1 10 Sur 29 Oeste 0 -- -- 45
2020-03-07 10:00:00 4.1 9 Oeste 33 Oeste 0 -- -- 51
2020-03-07 09:00:00 2.2 13 Oeste 34 Oeste 0.2 -- -- 61
2020-03-07 08:00:00 0.6 14 Oeste 32 Oeste 0 -- -- 72
2020-03-07 07:00:00 -2.7 4 Noroeste 8 Norte 0 -- -- 95
2020-03-07 06:00:00 -2.6 2 Este 8 Oeste 0 -- -- 95
2020-03-07 05:00:00 -1.5 2 Norte 17 Sudoeste 0 -- -- 93
2020-03-07 04:00:00 -0.7 8 Oeste 22 Oeste 0 -- -- 93
2020-03-07 03:00:00 -0.6 6 Oeste 28 Oeste 0 -- -- 89
2020-03-07 02:00:00 -0.8 8 Oeste 24 Oeste 0 -- -- 87
2020-03-07 01:00:00 -0.8 5 Oeste 31 Oeste 0 -- -- 92
2020-03-07 00:00:00 -0.7 10 Oeste 27 Oeste 0.6 -- -- 94
2020-03-06 23:00:00 -0.5 12 Oeste 23 Oeste 0.4 -- -- 91
2020-03-06 22:00:00 0.2 9 Oeste 31 Oeste 0 -- -- 84
2020-03-06 21:00:00 1.6 9 Oeste 22 Noroeste 0 -- -- 62
2020-03-06 20:00:00 2.3 9 Sudoeste 26 Sudoeste 0 -- -- 60
2020-03-06 19:00:00 3.3 12 Oeste 29 Oeste 0 -- -- 57
2020-03-06 18:00:00 5.5 10 Oeste 38 Oeste 0 -- -- 41
2020-03-06 17:00:00 7.2 8 Noroeste 40 Oeste 0 -- -- 36
2020-03-06 16:00:00 8 18 Sudoeste 43 Oeste 0 -- -- 40
2020-03-06 15:00:00 9.1 13 Oeste 35 Sudoeste 0 -- -- 41
2020-03-06 14:00:00 9.4 11 Oeste 29 Oeste 0 -- -- 42
2020-03-06 13:00:00 9.5 12 Oeste 40 Oeste 0 -- -- 36
2020-03-06 12:00:00 8.6 8 Sudoeste 27 Oeste 0 -- -- 44
2020-03-06 11:00:00 5.5 14 Oeste 33 Oeste 0 -- -- 55
2020-03-06 10:00:00 2.7 9 Oeste 19 Oeste 0 -- -- 67
2020-03-06 09:00:00 -0.7 3 Este 6 Nordeste 0 -- -- 83
2020-03-06 08:00:00 -3.3 0 Calma 5 Nordeste 0 -- -- 91
2020-03-06 07:00:00 -3.1 0 Calma 6 Este 0 -- -- 88
2020-03-06 06:00:00 -2.8 3 Nordeste 6 Norte 0 -- -- 88
2020-03-06 05:00:00 -2.4 2 Norte 6 Nordeste 0 -- -- 85
2020-03-06 04:00:00 -2.4 3 Nordeste 6 Norte 0 -- -- 85
2020-03-06 03:00:00 -1.7 2 Norte 8 Norte 0 -- -- 80
2020-03-06 02:00:00 -0.8 4 Nordeste 17 Norte 0 -- -- 78
2020-03-06 01:00:00 0.5 9 Norte 17 Norte 0 -- -- 75
2020-03-06 00:00:00 2.4 2 Noroeste 21 Sudoeste 0 -- -- 60
2020-03-05 23:00:00 4.4 5 Noroeste 21 Sudoeste 0 -- -- 52
2020-03-05 22:00:00 4.8 6 Norte 28 Oeste 0 -- -- 53
2020-03-05 21:00:00 5.4 9 Oeste 22 Oeste 0 -- -- 53
2020-03-05 20:00:00 6.1 6 Oeste 34 Sudoeste 0 -- -- 62
2020-03-05 19:00:00 5.7 7 Noroeste 21 Noroeste 0.2 -- -- 76
2020-03-05 18:00:00 7.6 6 Oeste 56 Sudoeste 0.4 -- -- 76
2020-03-05 17:00:00 9.4 11 Oeste 24 Oeste 0.4 -- -- 84
2020-03-05 16:00:00 8.5 13 Oeste 34 Oeste 2.2 -- -- 91
2020-03-05 15:00:00 9.5 13 Oeste 39 Sudoeste 0.6 -- -- 82
2020-03-05 14:00:00 10.4 11 Oeste 35 Oeste 1 -- -- 86
2020-03-05 13:00:00 12.4 12 Sudoeste 39 Oeste 0 -- -- 68
2020-03-05 12:00:00 12.3 13 Oeste 39 Oeste 0 -- -- 65
2020-03-05 11:00:00 12 16 Oeste 39 Oeste 0 -- -- 69
2020-03-05 10:00:00 8.5 10 Oeste 21 Oeste 0 -- -- 85
2020-03-05 09:00:00 4.7 5 Sudoeste 13 Oeste 0 -- -- 98
2020-03-05 08:00:00 3 2 Nordeste 6 Norte 0 -- -- 98
2020-03-05 07:00:00 2.3 2 Sudoeste 6 Norte 0 -- -- 97
2020-03-05 06:00:00 2.8 3 Sudeste 5 Sur 0 -- -- 95
2020-03-05 05:00:00 3.3 0 Calma 5 Oeste 0 -- -- 94
2020-03-05 04:00:00 3.9 0 Calma 5 Sudeste 0 -- -- 92
2020-03-05 03:00:00 4.2 2 Sur 5 Nordeste 0 -- -- 91
2020-03-05 02:00:00 4.4 2 Norte 5 Nordeste 0 -- -- 92
2020-03-05 01:00:00 4.1 4 Nordeste 6 Nordeste 0 -- -- 90
2020-03-05 00:00:00 5 2 Norte 4 Nordeste 0 -- -- 86
2020-03-04 23:00:00 6 2 Norte 4 Norte 0 -- -- 84
2020-03-04 22:00:00 6.7 0 Calma 6 Nordeste 0 -- -- 80
2020-03-04 21:00:00 7.8 4 Norte 9 Nordeste 0 -- -- 75
2020-03-04 20:00:00 10 2 Noroeste 10 Oeste 0 -- -- 68
2020-03-04 19:00:00 11.9 6 Noroeste 20 Noroeste 0 -- -- 61
2020-03-04 18:00:00 14.1 8 Oeste 23 Oeste 0 -- -- 55
2020-03-04 17:00:00 14 10 Oeste 27 Oeste 0 -- -- 53
2020-03-04 16:00:00 15.3 11 Oeste 24 Oeste 0 -- -- 50
2020-03-04 15:00:00 14.2 14 Oeste 27 Oeste 0 -- -- 52
2020-03-04 14:00:00 13.5 6 Sudeste 12 Sudeste 0 -- -- 49
2020-03-04 13:00:00 13.2 7 Este 18 Este 0 -- -- 47
2020-03-04 12:00:00 8.6 3 Sudeste 7 Sudeste 0 -- -- 57
2020-03-04 11:00:00 6.3 4 Este 22 Este 0 -- -- 62
2020-03-04 10:00:00 2.4 10 Este 19 Este 0 -- -- 82
2020-03-04 09:00:00 -0.7 0 Calma 16 Este 0 -- -- 94
2020-03-04 08:00:00 -1.9 4 Sudoeste 20 Este 0 -- -- 95
2020-03-04 07:00:00 -2.6 0 Calma 7 Norte 0 -- -- 95
2020-03-04 06:00:00 -2.3 3 Este 6 Este 0 -- -- 94
2020-03-04 05:00:00 -1.9 2 Nordeste 8 Norte 0 -- -- 94
2020-03-04 04:00:00 -1.5 2 Este 8 Norte 0 -- -- 95
2020-03-04 03:00:00 -0.5 4 Noroeste 9 Norte 0 -- -- 91
2020-03-04 02:00:00 0.6 3 Oeste 18 Este 0 -- -- 91
2020-03-04 01:00:00 1.2 5 Nordeste 13 Nordeste 0 -- -- 92
2020-03-04 00:00:00 1.9 4 Este 17 Este 0 -- -- 88
2020-03-03 23:00:00 3.2 5 Norte 30 Oeste 0.2 -- -- 85
2020-03-03 22:00:00 4.3 6 Oeste 33 Sudoeste 0.6 -- -- 87
2020-03-03 21:00:00 5.7 13 Sudoeste 41 Sudoeste 0 -- -- 72
2020-03-03 20:00:00 6 7 Noroeste 28 Oeste 0.2 -- -- 73
2020-03-03 19:00:00 5.4 7 Sudoeste 24 Oeste 0 -- -- 81
2020-03-03 18:00:00 5.1 12 Oeste 26 Oeste 0.2 -- -- 84
2020-03-03 17:00:00 4.8 10 Oeste 27 Oeste 0.4 -- -- 86
2020-03-03 16:00:00 5.6 12 Oeste 39 Oeste 0 -- -- 76
2020-03-03 15:00:00 7.4 23 Oeste 39 Oeste 0 -- -- 61
2020-03-03 14:00:00 6.2 17 Oeste 37 Oeste 0 -- -- 65
2020-03-03 13:00:00 5.2 15 Oeste 36 Oeste 0 -- -- 69
2020-03-03 12:00:00 2.2 9 Oeste 36 Oeste 0 -- -- 83
2020-03-03 11:00:00 3.7 14 Oeste 31 Oeste 0 -- -- 56
2020-03-03 10:00:00 2.6 12 Oeste 28 Oeste 0 -- -- 63
2020-03-03 09:00:00 0.8 14 Oeste 29 Oeste 0 -- -- 70
2020-03-03 08:00:00 -0.7 6 Norte 22 Oeste 0 -- -- 78
2020-03-03 07:00:00 -1.2 9 Oeste 22 Oeste 0 -- -- 80
2020-03-03 06:00:00 -1.2 6 Oeste 17 Oeste 0 -- -- 78
2020-03-03 05:00:00 -1.8 4 Noroeste 11 Sudoeste 0 -- -- 81
2020-03-03 04:00:00 -2 2 Noroeste 6 Oeste 0 -- -- 82
2020-03-03 03:00:00 -1.2 0 Calma 8 Oeste 0 -- -- 79
2020-03-03 02:00:00 0 3 Noroeste 12 Oeste 0 -- -- 73
2020-03-03 01:00:00 0.7 8 Oeste 17 Oeste 0 -- -- 69
2020-03-03 00:00:00 1.7 9 Oeste 23 Oeste 0 -- -- 66
2020-03-02 23:00:00 2.3 9 Oeste 21 Sudeste 0 -- -- 64
2020-03-02 22:00:00 2.8 7 Oeste 28 Oeste 0 -- -- 58
2020-03-02 21:00:00 3.3 10 Sudoeste 28 Sudoeste 0 -- -- 55
2020-03-02 20:00:00 3.5 6 Oeste 26 Sudoeste 0 -- -- 51
2020-03-02 19:00:00 4.4 11 Noroeste 28 Sudoeste 0 -- -- 45
2020-03-02 18:00:00 6.5 6 Sudeste 32 Oeste 0 -- -- 38
2020-03-02 17:00:00 8 12 Oeste 63 Oeste 0 -- -- 33
2020-03-02 16:00:00 9.2 22 Oeste 64 Sur 0 -- -- 30
2020-03-02 15:00:00 9.4 33 Sudoeste 59 Sur 0 -- -- 35
2020-03-02 14:00:00 9.4 25 Sudoeste 57 Sudoeste 0 -- -- 41
2020-03-02 13:00:00 8.9 8 Oeste 52 Oeste 0 -- -- 52
2020-03-02 12:00:00 10.1 13 Oeste 34 Sur 0 -- -- 60
2020-03-02 11:00:00 7.9 10 Sudoeste 46 Sudoeste 0.2 -- -- 65
2020-03-02 10:00:00 9.3 8 Oeste 24 Oeste 0 -- -- 78
2020-03-02 09:00:00 7.9 17 Sudoeste 80 Sudoeste 0.8 -- -- 78
2020-03-02 08:00:00 7.7 11 Oeste 41 Oeste 0.4 -- -- 90
2020-03-02 07:00:00 6.7 13 Noroeste 30 Oeste 0.4 -- -- 96
2020-03-02 06:00:00 4.9 2 Sur 9 Este 1.4 -- -- 96
2020-03-02 05:00:00 5 4 Sur 13 Sur 2 -- -- 94
2020-03-02 04:00:00 5.5 0 Calma 6 Nordeste 3.2 -- -- 96
2020-03-02 03:00:00 5.7 0 Calma 5 Nordeste 1.8 -- -- 95
2020-03-02 02:00:00 5.8 0 Calma 15 Oeste 0.6 -- -- 94
2020-03-02 01:00:00 5.8 11 Oeste 20 Oeste 0 -- -- 91
2020-03-02 00:00:00 5.5 11 Oeste 20 Oeste 0.2 -- -- 92
2020-03-01 23:00:00 5.7 5 Noroeste 22 Oeste 1.4 -- -- 90
2020-03-01 22:00:00 7.3 7 Oeste 21 Oeste 0.2 -- -- 76
2020-03-01 21:00:00 7.9 4 Oeste 13 Oeste 0 -- -- 58
2020-03-01 20:00:00 9.1 4 Oeste 34 Sudoeste 0 -- -- 52
2020-03-01 19:00:00 10.1 18 Sudoeste 44 Sur 0 -- -- 47
2020-03-01 18:00:00 11.3 18 Sudoeste 40 Sudoeste 0 -- -- 39
2020-03-01 17:00:00 12.3 20 Sudoeste 48 Sudoeste 0 -- -- 37
2020-03-01 16:00:00 13 16 Sudoeste 48 Sudoeste 0 -- -- 41
2020-03-01 15:00:00 13.2 28 Sudoeste 55 Oeste 0 -- -- 44
2020-03-01 14:00:00 10.5 16 Sudoeste 37 Sudoeste 0 -- -- 52
2020-03-01 13:00:00 9.4 13 Noroeste 34 Oeste 0 -- -- 68
2020-03-01 12:00:00 10.9 19 Oeste 41 Oeste 0 -- -- 49
2020-03-01 11:00:00 10.4 21 Sudoeste 35 Sudoeste 0.2 -- -- 54
2020-03-01 10:00:00 8.8 14 Oeste 35 Oeste 0 -- -- 59
2020-03-01 09:00:00 6.8 9 Noroeste 31 Oeste 0 -- -- 67
2020-03-01 08:00:00 5.3 7 Oeste 15 Oeste 0 -- -- 79
2020-03-01 07:00:00 5.6 6 Noroeste 15 Oeste 0 -- -- 78
2020-03-01 06:00:00 6.4 8 Oeste 14 Oeste 0 -- -- 82
2020-03-01 05:00:00 6.8 8 Oeste 17 Oeste 0 -- -- 84
2020-03-01 04:00:00 6.9 7 Oeste 15 Oeste 0 -- -- 84
2020-03-01 03:00:00 6.8 6 Oeste 14 Oeste 0 -- -- 87
2020-03-01 02:00:00 7 6 Noroeste 12 Oeste 0 -- -- 88
2020-03-01 01:00:00 7.4 4 Noroeste 18 Oeste 0 -- -- 89
2020-03-01 00:00:00 7.5 5 Noroeste 12 Noroeste 0.4 -- -- 90
2020-02-29 23:00:00 8.3 3 Noroeste 16 Oeste 0 -- -- 79
2020-02-29 22:00:00 8.9 5 Oeste 23 Sudoeste 0 -- -- 73
2020-02-29 21:00:00 9.6 5 Oeste 16 Oeste 0 -- -- 62
2020-02-29 20:00:00 10 9 Oeste 27 Oeste 0 -- -- 58
2020-02-29 19:00:00 10.7 11 Oeste 27 Sudoeste 0 -- -- 54
2020-02-29 18:00:00 11.8 5 Oeste 38 Sudoeste 0 -- -- 50
2020-02-29 17:00:00 13.2 8 Sudoeste 40 Oeste 0 -- -- 47
2020-02-29 16:00:00 14 15 Oeste 44 Oeste 0 -- -- 44
2020-02-29 15:00:00 14.7 15 Oeste 38 Oeste 0 -- -- 44
2020-02-29 14:00:00 14.5 12 Oeste 37 Oeste 0 -- -- 40
2020-02-29 13:00:00 15.4 14 Sudoeste 37 Oeste 0 -- -- 38
2020-02-29 12:00:00 13.9 15 Oeste 49 Sudoeste 0 -- -- 45
2020-02-29 11:00:00 12.4 21 Sudoeste 39 Sudoeste 0 -- -- 49
2020-02-29 10:00:00 10.4 22 Sudoeste 50 Sudoeste 0 -- -- 57
2020-02-29 09:00:00 6.5 12 Noroeste 26 Oeste 0 -- -- 83
2020-02-29 08:00:00 4.4 10 Noroeste 20 Noroeste 0 -- -- 97
2020-02-29 07:00:00 3.8 9 Noroeste 18 Noroeste 0 -- -- 96
2020-02-29 06:00:00 4 7 Noroeste 17 Oeste 0 -- -- 96
2020-02-29 05:00:00 4.3 8 Noroeste 15 Oeste 0 -- -- 96
2020-02-29 04:00:00 4.7 6 Noroeste 13 Oeste 0 -- -- 96
2020-02-29 03:00:00 5.1 6 Noroeste 14 Oeste 0 -- -- 95
2020-02-29 02:00:00 5.3 3 Noroeste 12 Oeste 0 -- -- 92
2020-02-29 01:00:00 6.3 8 Oeste 15 Oeste 0 -- -- 91
2020-02-29 00:00:00 6.6 6 Oeste 13 Oeste 0 -- -- 90